Hornepayne, Canada
Current Conditions -  °F | °C
As of 7:00 PM on Tuesday 27 Jan 2015 (Local Time) from CYXZ Reporting Station
Clear Clear  
Wind Chill: -14°   Ceiling: Unl
Heat Index: -14°   Visibility: 15mi
Dew Point: -16°   Wind: 0mph
Humidity: 85%   Direction: NA
Pressure: 30.21"   Gusts: NA
Location:  49.22°N, 84.78°W
Report Text: CYXZ 280000Z 00000KT 15SM SKC M14/M16 A3021 RMK LAST OBS/NEXT 281100UTC SLP262
Loading
Personal Weather Stations






























Interactive Weather Map New forecast layout! Learn more

10-Day Weather Forecast

Advertisements
Track Severe Weather on mobile